sensor_id;sensor_type;location;lat;lon;timestamp;P1;durP1;ratioP1;P2;durP2;ratioP2
7707;SDS011;3896;48.758;8.888;2023-02-07T00:01:49;8.30;;;6.40;;
7707;SDS011;3896;48.758;8.888;2023-02-07T00:04:14;8.10;;;6.13;;
7707;SDS011;3896;48.758;8.888;2023-02-07T00:06:40;7.37;;;5.70;;
7707;SDS011;3896;48.758;8.888;2023-02-07T00:09:06;8.73;;;6.67;;
7707;SDS011;3896;48.758;8.888;2023-02-07T00:11:33;8.47;;;6.60;;
7707;SDS011;3896;48.758;8.888;2023-02-07T00:14:00;10.03;;;6.37;;
7707;SDS011;3896;48.758;8.888;2023-02-07T00:16:25;7.90;;;6.27;;
7707;SDS011;3896;48.758;8.888;2023-02-07T00:18:52;7.67;;;6.30;;
7707;SDS011;3896;48.758;8.888;2023-02-07T00:21:19;8.60;;;5.70;;
7707;SDS011;3896;48.758;8.888;2023-02-07T00:23:46;7.67;;;5.53;;
7707;SDS011;3896;48.758;8.888;2023-02-07T00:26:13;8.00;;;5.77;;
7707;SDS011;3896;48.758;8.888;2023-02-07T00:28:39;11.37;;;7.00;;
7707;SDS011;3896;48.758;8.888;2023-02-07T00:31:06;8.93;;;6.47;;
7707;SDS011;3896;48.758;8.888;2023-02-07T00:33:38;9.07;;;6.60;;
7707;SDS011;3896;48.758;8.888;2023-02-07T00:36:06;8.77;;;5.80;;
7707;SDS011;3896;48.758;8.888;2023-02-07T00:38:33;7.93;;;5.90;;
7707;SDS011;3896;48.758;8.888;2023-02-07T00:40:59;9.00;;;6.07;;
7707;SDS011;3896;48.758;8.888;2023-02-07T00:43:27;9.63;;;7.43;;
7707;SDS011;3896;48.758;8.888;2023-02-07T00:45:57;8.03;;;6.20;;
7707;SDS011;3896;48.758;8.888;2023-02-07T00:48:24;8.77;;;6.23;;
7707;SDS011;3896;48.758;8.888;2023-02-07T00:50:53;9.90;;;6.03;;
7707;SDS011;3896;48.758;8.888;2023-02-07T00:53:19;8.67;;;6.30;;
7707;SDS011;3896;48.758;8.888;2023-02-07T00:55:45;9.93;;;5.53;;
7707;SDS011;3896;48.758;8.888;2023-02-07T00:58:11;8.60;;;6.07;;
7707;SDS011;3896;48.758;8.888;2023-02-07T01:00:36;7.90;;;6.07;;
7707;SDS011;3896;48.758;8.888;2023-02-07T01:03:02;9.53;;;6.13;;
7707;SDS011;3896;48.758;8.888;2023-02-07T01:05:27;9.20;;;5.77;;
7707;SDS011;3896;48.758;8.888;2023-02-07T01:07:53;8.70;;;5.33;;
7707;SDS011;3896;48.758;8.888;2023-02-07T01:10:19;8.13;;;5.77;;
7707;SDS011;3896;48.758;8.888;2023-02-07T01:12:45;6.90;;;5.40;;
7707;SDS011;3896;48.758;8.888;2023-02-07T01:15:10;7.50;;;5.00;;
7707;SDS011;3896;48.758;8.888;2023-02-07T01:17:36;8.90;;;5.50;;
7707;SDS011;3896;48.758;8.888;2023-02-07T01:20:02;7.63;;;5.47;;
7707;SDS011;3896;48.758;8.888;2023-02-07T01:22:27;7.60;;;5.17;;
7707;SDS011;3896;48.758;8.888;2023-02-07T01:24:53;6.10;;;4.33;;
7707;SDS011;3896;48.758;8.888;2023-02-07T01:27:20;7.23;;;5.00;;
7707;SDS011;3896;48.758;8.888;2023-02-07T01:29:47;9.87;;;5.13;;
7707;SDS011;3896;48.758;8.888;2023-02-07T01:32:12;10.27;;;5.00;;
7707;SDS011;3896;48.758;8.888;2023-02-07T01:34:38;6.77;;;4.73;;
7707;SDS011;3896;48.758;8.888;2023-02-07T01:37:04;9.90;;;5.80;;
7707;SDS011;3896;48.758;8.888;2023-02-07T01:39:29;7.20;;;5.37;;
7707;SDS011;3896;48.758;8.888;2023-02-07T01:41:55;8.20;;;5.63;;
7707;SDS011;3896;48.758;8.888;2023-02-07T01:46:46;9.40;;;5.33;;
7707;SDS011;3896;48.758;8.888;2023-02-07T01:49:13;6.77;;;4.90;;
7707;SDS011;3896;48.758;8.888;2023-02-07T01:51:45;8.50;;;5.57;;
7707;SDS011;3896;48.758;8.888;2023-02-07T01:54:13;8.77;;;5.87;;
7707;SDS011;3896;48.758;8.888;2023-02-07T01:56:43;10.97;;;7.20;;
7707;SDS011;3896;48.758;8.888;2023-02-07T01:59:12;10.57;;;7.27;;
7707;SDS011;3896;48.758;8.888;2023-02-07T02:01:39;11.50;;;7.27;;
7707;SDS011;3896;48.758;8.888;2023-02-07T02:04:06;12.30;;;7.60;;
7707;SDS011;3896;48.758;8.888;2023-02-07T02:06:32;10.63;;;7.27;;
7707;SDS011;3896;48.758;8.888;2023-02-07T02:08:59;14.43;;;7.60;;
7707;SDS011;3896;48.758;8.888;2023-02-07T02:11:30;13.40;;;7.60;;
7707;SDS011;3896;48.758;8.888;2023-02-07T02:14:24;10.83;;;7.13;;
7707;SDS011;3896;48.758;8.888;2023-02-07T02:25:54;12.77;;;8.17;;
7707;SDS011;3896;48.758;8.888;2023-02-07T02:34:43;10.83;;;7.30;;
7707;SDS011;3896;48.758;8.888;2023-02-07T02:40:18;10.47;;;7.20;;
7707;SDS011;3896;48.758;8.888;2023-02-07T02:42:51;12.70;;;7.57;;
7707;SDS011;3896;48.758;8.888;2023-02-07T02:45:24;11.90;;;8.20;;
7707;SDS011;3896;48.758;8.888;2023-02-07T02:47:54;12.30;;;8.57;;
7707;SDS011;3896;48.758;8.888;2023-02-07T02:50:21;10.77;;;8.00;;
7707;SDS011;3896;48.758;8.888;2023-02-07T02:52:53;14.63;;;8.03;;
7707;SDS011;3896;48.758;8.888;2023-02-07T02:55:21;14.20;;;9.13;;
7707;SDS011;3896;48.758;8.888;2023-02-07T02:58:02;11.00;;;7.83;;
7707;SDS011;3896;48.758;8.888;2023-02-07T03:04:25;14.77;;;8.83;;
7707;SDS011;3896;48.758;8.888;2023-02-07T03:11:53;14.07;;;8.00;;
7707;SDS011;3896;48.758;8.888;2023-02-07T03:14:30;10.17;;;7.60;;
7707;SDS011;3896;48.758;8.888;2023-02-07T03:17:10;15.10;;;8.43;;
7707;SDS011;3896;48.758;8.888;2023-02-07T03:19:49;14.47;;;8.73;;
7707;SDS011;3896;48.758;8.888;2023-02-07T03:22:35;15.03;;;9.03;;
7707;SDS011;3896;48.758;8.888;2023-02-07T03:25:03;11.93;;;7.80;;
7707;SDS011;3896;48.758;8.888;2023-02-07T03:27:30;12.43;;;8.40;;
7707;SDS011;3896;48.758;8.888;2023-02-07T03:29:58;12.73;;;7.87;;
7707;SDS011;3896;48.758;8.888;2023-02-07T03:32:29;12.63;;;8.13;;
7707;SDS011;3896;48.758;8.888;2023-02-07T03:34:59;12.87;;;8.80;;
7707;SDS011;3896;48.758;8.888;2023-02-07T03:37:32;12.53;;;8.13;;
7707;SDS011;3896;48.758;8.888;2023-02-07T03:40:01;13.23;;;8.80;;
7707;SDS011;3896;48.758;8.888;2023-02-07T03:42:36;14.07;;;8.47;;
7707;SDS011;3896;48.758;8.888;2023-02-07T03:45:04;14.63;;;8.27;;
7707;SDS011;3896;48.758;8.888;2023-02-07T03:47:33;13.77;;;8.43;;
7707;SDS011;3896;48.758;8.888;2023-02-07T03:49:59;13.17;;;8.23;;
7707;SDS011;3896;48.758;8.888;2023-02-07T03:52:24;13.67;;;8.63;;
7707;SDS011;3896;48.758;8.888;2023-02-07T03:54:50;13.10;;;8.47;;
7707;SDS011;3896;48.758;8.888;2023-02-07T03:57:15;12.80;;;9.17;;
7707;SDS011;3896;48.758;8.888;2023-02-07T03:59:41;10.77;;;8.17;;
7707;SDS011;3896;48.758;8.888;2023-02-07T04:02:07;12.90;;;8.63;;
7707;SDS011;3896;48.758;8.888;2023-02-07T04:04:32;14.50;;;9.33;;
7707;SDS011;3896;48.758;8.888;2023-02-07T04:06:58;13.47;;;8.70;;
7707;SDS011;3896;48.758;8.888;2023-02-07T04:09:23;14.87;;;9.20;;
7707;SDS011;3896;48.758;8.888;2023-02-07T04:11:49;15.00;;;9.33;;
7707;SDS011;3896;48.758;8.888;2023-02-07T04:14:16;13.47;;;9.53;;
7707;SDS011;3896;48.758;8.888;2023-02-07T04:16:44;16.67;;;9.20;;
7707;SDS011;3896;48.758;8.888;2023-02-07T04:19:10;15.07;;;10.33;;
7707;SDS011;3896;48.758;8.888;2023-02-07T04:21:35;15.57;;;9.73;;
7707;SDS011;3896;48.758;8.888;2023-02-07T04:24:01;15.27;;;10.13;;
7707;SDS011;3896;48.758;8.888;2023-02-07T04:26:27;15.20;;;9.63;;
7707;SDS011;3896;48.758;8.888;2023-02-07T04:28:52;13.03;;;8.43;;
7707;SDS011;3896;48.758;8.888;2023-02-07T04:31:18;12.27;;;8.97;;
7707;SDS011;3896;48.758;8.888;2023-02-07T04:33:43;13.70;;;9.87;;
7707;SDS011;3896;48.758;8.888;2023-02-07T04:36:09;12.97;;;9.73;;
7707;SDS011;3896;48.758;8.888;2023-02-07T04:38:35;13.57;;;9.83;;
7707;SDS011;3896;48.758;8.888;2023-02-07T04:41:01;14.30;;;9.93;;
7707;SDS011;3896;48.758;8.888;2023-02-07T04:43:29;18.57;;;9.93;;
7707;SDS011;3896;48.758;8.888;2023-02-07T04:45:59;12.33;;;8.77;;
7707;SDS011;3896;48.758;8.888;2023-02-07T04:48:24;12.67;;;9.37;;
7707;SDS011;3896;48.758;8.888;2023-02-07T04:50:50;14.17;;;9.17;;
7707;SDS011;3896;48.758;8.888;2023-02-07T04:53:16;15.27;;;9.97;;
7707;SDS011;3896;48.758;8.888;2023-02-07T04:55:42;16.13;;;10.23;;
7707;SDS011;3896;48.758;8.888;2023-02-07T04:58:07;15.70;;;10.47;;
7707;SDS011;3896;48.758;8.888;2023-02-07T05:00:33;17.63;;;10.57;;
7707;SDS011;3896;48.758;8.888;2023-02-07T05:02:59;15.17;;;10.53;;
7707;SDS011;3896;48.758;8.888;2023-02-07T05:05:25;17.00;;;10.67;;
7707;SDS011;3896;48.758;8.888;2023-02-07T05:07:51;15.10;;;10.70;;
7707;SDS011;3896;48.758;8.888;2023-02-07T05:10:16;16.77;;;10.53;;
7707;SDS011;3896;48.758;8.888;2023-02-07T05:12:42;16.43;;;10.73;;
7707;SDS011;3896;48.758;8.888;2023-02-07T05:15:07;18.67;;;10.53;;
7707;SDS011;3896;48.758;8.888;2023-02-07T05:17:35;17.17;;;10.93;;
7707;SDS011;3896;48.758;8.888;2023-02-07T05:20:02;16.67;;;10.83;;
7707;SDS011;3896;48.758;8.888;2023-02-07T05:22:28;19.93;;;11.93;;
7707;SDS011;3896;48.758;8.888;2023-02-07T05:24:54;14.90;;;10.90;;
7707;SDS011;3896;48.758;8.888;2023-02-07T05:27:20;15.33;;;10.63;;
7707;SDS011;3896;48.758;8.888;2023-02-07T05:29:46;15.73;;;10.77;;
7707;SDS011;3896;48.758;8.888;2023-02-07T05:32:12;17.43;;;11.20;;
7707;SDS011;3896;48.758;8.888;2023-02-07T05:34:57;19.03;;;11.53;;
7707;SDS011;3896;48.758;8.888;2023-02-07T05:37:22;14.17;;;10.33;;
7707;SDS011;3896;48.758;8.888;2023-02-07T05:39:48;18.13;;;10.70;;
7707;SDS011;3896;48.758;8.888;2023-02-07T05:42:14;16.97;;;9.90;;
7707;SDS011;3896;48.758;8.888;2023-02-07T05:44:39;15.43;;;9.70;;
7707;SDS011;3896;48.758;8.888;2023-02-07T05:47:05;16.03;;;10.53;;
7707;SDS011;3896;48.758;8.888;2023-02-07T05:49:30;13.87;;;10.50;;
7707;SDS011;3896;48.758;8.888;2023-02-07T05:51:56;19.87;;;10.73;;
7707;SDS011;3896;48.758;8.888;2023-02-07T05:54:22;16.90;;;10.10;;
7707;SDS011;3896;48.758;8.888;2023-02-07T05:56:47;18.67;;;11.50;;
7707;SDS011;3896;48.758;8.888;2023-02-07T05:59:13;26.60;;;10.63;;
7707;SDS011;3896;48.758;8.888;2023-02-07T06:01:38;19.57;;;10.30;;
7707;SDS011;3896;48.758;8.888;2023-02-07T06:04:04;12.67;;;9.13;;
7707;SDS011;3896;48.758;8.888;2023-02-07T06:06:30;17.47;;;11.07;;
7707;SDS011;3896;48.758;8.888;2023-02-07T06:08:55;16.73;;;10.90;;
7707;SDS011;3896;48.758;8.888;2023-02-07T06:11:21;16.67;;;10.70;;
7707;SDS011;3896;48.758;8.888;2023-02-07T06:13:46;16.70;;;10.80;;
7707;SDS011;3896;48.758;8.888;2023-02-07T06:16:12;15.00;;;10.33;;
7707;SDS011;3896;48.758;8.888;2023-02-07T06:18:37;16.33;;;11.30;;
7707;SDS011;3896;48.758;8.888;2023-02-07T06:21:03;15.30;;;10.60;;
7707;SDS011;3896;48.758;8.888;2023-02-07T06:23:29;14.50;;;10.33;;
7707;SDS011;3896;48.758;8.888;2023-02-07T06:25:54;18.43;;;10.63;;
7707;SDS011;3896;48.758;8.888;2023-02-07T06:28:20;14.83;;;10.10;;
7707;SDS011;3896;48.758;8.888;2023-02-07T06:30:45;17.60;;;9.90;;
7707;SDS011;3896;48.758;8.888;2023-02-07T06:33:11;16.37;;;10.83;;
7707;SDS011;3896;48.758;8.888;2023-02-07T06:35:37;16.53;;;9.87;;
7707;SDS011;3896;48.758;8.888;2023-02-07T06:38:03;15.63;;;10.60;;
7707;SDS011;3896;48.758;8.888;2023-02-07T06:40:28;18.07;;;10.93;;
7707;SDS011;3896;48.758;8.888;2023-02-07T06:42:54;20.13;;;14.38;;
7707;SDS011;3896;48.758;8.888;2023-02-07T06:45:19;18.90;;;11.90;;
7707;SDS011;3896;48.758;8.888;2023-02-07T06:47:45;15.63;;;10.67;;
7707;SDS011;3896;48.758;8.888;2023-02-07T06:50:10;17.27;;;10.97;;
7707;SDS011;3896;48.758;8.888;2023-02-07T06:52:36;20.27;;;11.63;;
7707;SDS011;3896;48.758;8.888;2023-02-07T06:55:02;14.27;;;10.07;;
7707;SDS011;3896;48.758;8.888;2023-02-07T06:57:27;19.33;;;11.23;;
7707;SDS011;3896;48.758;8.888;2023-02-07T06:59:53;17.83;;;10.43;;
7707;SDS011;3896;48.758;8.888;2023-02-07T07:02:18;17.17;;;10.97;;
7707;SDS011;3896;48.758;8.888;2023-02-07T07:04:44;19.43;;;11.23;;
7707;SDS011;3896;48.758;8.888;2023-02-07T07:07:10;16.03;;;11.17;;
7707;SDS011;3896;48.758;8.888;2023-02-07T07:09:35;19.97;;;11.83;;
7707;SDS011;3896;48.758;8.888;2023-02-07T07:12:01;15.53;;;11.23;;
7707;SDS011;3896;48.758;8.888;2023-02-07T07:14:28;18.07;;;11.20;;
7707;SDS011;3896;48.758;8.888;2023-02-07T07:16:54;21.37;;;11.67;;
7707;SDS011;3896;48.758;8.888;2023-02-07T07:19:19;19.33;;;10.77;;
7707;SDS011;3896;48.758;8.888;2023-02-07T07:21:45;19.50;;;10.97;;
7707;SDS011;3896;48.758;8.888;2023-02-07T07:24:10;15.50;;;10.70;;
7707;SDS011;3896;48.758;8.888;2023-02-07T07:26:36;15.93;;;9.97;;
7707;SDS011;3896;48.758;8.888;2023-02-07T07:29:02;17.53;;;10.87;;
7707;SDS011;3896;48.758;8.888;2023-02-07T07:31:28;14.13;;;9.47;;
7707;SDS011;3896;48.758;8.888;2023-02-07T07:33:54;14.90;;;10.17;;
7707;SDS011;3896;48.758;8.888;2023-02-07T07:36:20;16.60;;;10.03;;
7707;SDS011;3896;48.758;8.888;2023-02-07T07:38:46;20.70;;;11.23;;
7707;SDS011;3896;48.758;8.888;2023-02-07T07:41:12;18.03;;;11.07;;
7707;SDS011;3896;48.758;8.888;2023-02-07T07:43:37;19.40;;;11.57;;
7707;SDS011;3896;48.758;8.888;2023-02-07T07:46:03;16.40;;;10.63;;
7707;SDS011;3896;48.758;8.888;2023-02-07T07:48:31;21.17;;;12.17;;
7707;SDS011;3896;48.758;8.888;2023-02-07T07:50:57;20.37;;;12.33;;
7707;SDS011;3896;48.758;8.888;2023-02-07T07:53:22;21.10;;;12.03;;
7707;SDS011;3896;48.758;8.888;2023-02-07T07:55:52;21.23;;;12.53;;
7707;SDS011;3896;48.758;8.888;2023-02-07T07:58:20;21.63;;;13.40;;
7707;SDS011;3896;48.758;8.888;2023-02-07T08:00:46;19.17;;;12.80;;
7707;SDS011;3896;48.758;8.888;2023-02-07T08:03:12;26.57;;;14.63;;
7707;SDS011;3896;48.758;8.888;2023-02-07T08:05:39;25.83;;;14.50;;
7707;SDS011;3896;48.758;8.888;2023-02-07T08:08:04;23.73;;;14.33;;
7707;SDS011;3896;48.758;8.888;2023-02-07T08:10:30;25.07;;;14.13;;
7707;SDS011;3896;48.758;8.888;2023-02-07T08:12:56;26.93;;;15.40;;
7707;SDS011;3896;48.758;8.888;2023-02-07T08:15:22;26.23;;;16.47;;
7707;SDS011;3896;48.758;8.888;2023-02-07T08:17:48;26.50;;;15.97;;
7707;SDS011;3896;48.758;8.888;2023-02-07T08:20:14;29.37;;;16.87;;
7707;SDS011;3896;48.758;8.888;2023-02-07T08:22:40;12.03;;;7.93;;
7707;SDS011;3896;48.758;8.888;2023-02-07T08:25:06;24.50;;;15.10;;
7707;SDS011;3896;48.758;8.888;2023-02-07T08:27:31;23.90;;;14.97;;
7707;SDS011;3896;48.758;8.888;2023-02-07T08:29:57;33.67;;;16.73;;
7707;SDS011;3896;48.758;8.888;2023-02-07T08:32:23;27.33;;;16.43;;
7707;SDS011;3896;48.758;8.888;2023-02-07T08:34:48;17.23;;;11.30;;
7707;SDS011;3896;48.758;8.888;2023-02-07T08:37:14;28.00;;;16.30;;
7707;SDS011;3896;48.758;8.888;2023-02-07T08:39:39;29.07;;;15.67;;
7707;SDS011;3896;48.758;8.888;2023-02-07T08:42:06;26.77;;;15.77;;
7707;SDS011;3896;48.758;8.888;2023-02-07T08:44:32;19.17;;;13.53;;
7707;SDS011;3896;48.758;8.888;2023-02-07T08:46:59;24.77;;;11.63;;
7707;SDS011;3896;48.758;8.888;2023-02-07T08:49:25;18.50;;;10.53;;
7707;SDS011;3896;48.758;8.888;2023-02-07T08:51:51;23.73;;;11.90;;
7707;SDS011;3896;48.758;8.888;2023-02-07T08:54:17;20.03;;;12.27;;
7707;SDS011;3896;48.758;8.888;2023-02-07T08:56:43;17.83;;;10.47;;
7707;SDS011;3896;48.758;8.888;2023-02-07T08:59:09;16.50;;;10.57;;
7707;SDS011;3896;48.758;8.888;2023-02-07T09:01:34;17.97;;;11.30;;
7707;SDS011;3896;48.758;8.888;2023-02-07T09:04:00;16.63;;;10.57;;
7707;SDS011;3896;48.758;8.888;2023-02-07T09:06:26;15.67;;;11.13;;
7707;SDS011;3896;48.758;8.888;2023-02-07T09:08:52;14.90;;;10.30;;
7707;SDS011;3896;48.758;8.888;2023-02-07T09:11:18;19.60;;;10.60;;
7707;SDS011;3896;48.758;8.888;2023-02-07T09:13:43;15.57;;;11.17;;
7707;SDS011;3896;48.758;8.888;2023-02-07T09:16:12;17.47;;;11.80;;
7707;SDS011;3896;48.758;8.888;2023-02-07T09:18:38;13.77;;;9.77;;
7707;SDS011;3896;48.758;8.888;2023-02-07T09:21:05;19.23;;;10.37;;
7707;SDS011;3896;48.758;8.888;2023-02-07T09:23:31;16.77;;;10.53;;
7707;SDS011;3896;48.758;8.888;2023-02-07T09:26:00;16.50;;;11.50;;
7707;SDS011;3896;48.758;8.888;2023-02-07T09:28:27;17.60;;;11.20;;
7707;SDS011;3896;48.758;8.888;2023-02-07T09:30:53;18.77;;;11.20;;
7707;SDS011;3896;48.758;8.888;2023-02-07T09:33:18;15.70;;;9.70;;
7707;SDS011;3896;48.758;8.888;2023-02-07T09:35:47;13.47;;;9.90;;
7707;SDS011;3896;48.758;8.888;2023-02-07T09:38:15;16.77;;;10.53;;
7707;SDS011;3896;48.758;8.888;2023-02-07T09:40:44;12.77;;;10.17;;
7707;SDS011;3896;48.758;8.888;2023-02-07T09:46:18;14.90;;;9.73;;
7707;SDS011;3896;48.758;8.888;2023-02-07T09:51:35;18.17;;;10.67;;
7707;SDS011;3896;48.758;8.888;2023-02-07T09:54:22;15.17;;;9.50;;
7707;SDS011;3896;48.758;8.888;2023-02-07T09:56:50;16.10;;;9.07;;
7707;SDS011;3896;48.758;8.888;2023-02-07T09:59:27;14.63;;;8.43;;
7707;SDS011;3896;48.758;8.888;2023-02-07T10:02:03;13.43;;;9.23;;
7707;SDS011;3896;48.758;8.888;2023-02-07T10:04:45;12.47;;;9.13;;
7707;SDS011;3896;48.758;8.888;2023-02-07T10:07:13;14.50;;;8.43;;
7707;SDS011;3896;48.758;8.888;2023-02-07T10:09:40;11.43;;;8.20;;
7707;SDS011;3896;48.758;8.888;2023-02-07T10:31:32;13.87;;;8.67;;
7707;SDS011;3896;48.758;8.888;2023-02-07T10:34:23;13.97;;;8.60;;
7707;SDS011;3896;48.758;8.888;2023-02-07T10:36:52;11.43;;;8.17;;
7707;SDS011;3896;48.758;8.888;2023-02-07T10:42:08;9.70;;;7.83;;
7707;SDS011;3896;48.758;8.888;2023-02-07T10:44:39;11.33;;;8.27;;
7707;SDS011;3896;48.758;8.888;2023-02-07T10:47:05;11.77;;;8.27;;
7707;SDS011;3896;48.758;8.888;2023-02-07T10:49:35;12.73;;;8.27;;
7707;SDS011;3896;48.758;8.888;2023-02-07T10:52:47;14.83;;;8.83;;
7707;SDS011;3896;48.758;8.888;2023-02-07T10:57:23;11.57;;;8.30;;
7707;SDS011;3896;48.758;8.888;2023-02-07T10:59:56;11.10;;;8.77;;
7707;SDS011;3896;48.758;8.888;2023-02-07T11:02:43;11.43;;;8.20;;
7707;SDS011;3896;48.758;8.888;2023-02-07T11:07:39;13.60;;;8.33;;
7707;SDS011;3896;48.758;8.888;2023-02-07T11:12:49;9.77;;;7.83;;
7707;SDS011;3896;48.758;8.888;2023-02-07T11:15:20;13.23;;;8.77;;
7707;SDS011;3896;48.758;8.888;2023-02-07T11:17:51;13.83;;;8.07;;
7707;SDS011;3896;48.758;8.888;2023-02-07T11:20:27;10.47;;;8.33;;
7707;SDS011;3896;48.758;8.888;2023-02-07T11:22:57;12.90;;;7.70;;
7707;SDS011;3896;48.758;8.888;2023-02-07T11:25:37;11.50;;;8.17;;
7707;SDS011;3896;48.758;8.888;2023-02-07T11:28:18;12.87;;;8.83;;
7707;SDS011;3896;48.758;8.888;2023-02-07T11:30:51;12.17;;;8.43;;
7707;SDS011;3896;48.758;8.888;2023-02-07T11:33:20;14.00;;;9.03;;
7707;SDS011;3896;48.758;8.888;2023-02-07T11:38:36;11.53;;;8.50;;
7707;SDS011;3896;48.758;8.888;2023-02-07T11:41:34;10.83;;;8.23;;
7707;SDS011;3896;48.758;8.888;2023-02-07T11:44:13;13.27;;;8.60;;
7707;SDS011;3896;48.758;8.888;2023-02-07T11:46:42;13.60;;;9.20;;
7707;SDS011;3896;48.758;8.888;2023-02-07T11:49:19;14.27;;;8.93;;
7707;SDS011;3896;48.758;8.888;2023-02-07T11:52:04;10.17;;;7.93;;
7707;SDS011;3896;48.758;8.888;2023-02-07T11:54:30;13.60;;;8.80;;
7707;SDS011;3896;48.758;8.888;2023-02-07T11:57:04;10.70;;;7.67;;
7707;SDS011;3896;48.758;8.888;2023-02-07T11:59:34;10.83;;;7.63;;
7707;SDS011;3896;48.758;8.888;2023-02-07T12:02:05;13.03;;;8.23;;
7707;SDS011;3896;48.758;8.888;2023-02-07T12:04:39;11.43;;;8.93;;
7707;SDS011;3896;48.758;8.888;2023-02-07T12:09:56;13.37;;;8.80;;
7707;SDS011;3896;48.758;8.888;2023-02-07T12:12:42;11.67;;;7.77;;
7707;SDS011;3896;48.758;8.888;2023-02-07T12:20:26;9.77;;;8.20;;
7707;SDS011;3896;48.758;8.888;2023-02-07T12:25:54;11.97;;;8.00;;
7707;SDS011;3896;48.758;8.888;2023-02-07T12:31:14;9.53;;;7.20;;
7707;SDS011;3896;48.758;8.888;2023-02-07T12:33:58;12.63;;;9.33;;
7707;SDS011;3896;48.758;8.888;2023-02-07T12:36:33;11.93;;;8.77;;
7707;SDS011;3896;48.758;8.888;2023-02-07T12:39:13;8.77;;;7.60;;
7707;SDS011;3896;48.758;8.888;2023-02-07T12:41:52;12.13;;;9.23;;
7707;SDS011;3896;48.758;8.888;2023-02-07T12:44:37;9.80;;;8.10;;
7707;SDS011;3896;48.758;8.888;2023-02-07T12:50:16;11.00;;;8.07;;
7707;SDS011;3896;48.758;8.888;2023-02-07T12:52:49;10.43;;;8.43;;
7707;SDS011;3896;48.758;8.888;2023-02-07T12:55:39;9.93;;;8.47;;
7707;SDS011;3896;48.758;8.888;2023-02-07T13:01:46;9.93;;;7.87;;
7707;SDS011;3896;48.758;8.888;2023-02-07T13:04:38;10.97;;;8.27;;
7707;SDS011;3896;48.758;8.888;2023-02-07T13:07:30;12.30;;;8.20;;
7707;SDS011;3896;48.758;8.888;2023-02-07T13:12:29;10.83;;;8.07;;
7707;SDS011;3896;48.758;8.888;2023-02-07T13:18:23;11.10;;;8.40;;
7707;SDS011;3896;48.758;8.888;2023-02-07T13:23:47;10.67;;;8.60;;
7707;SDS011;3896;48.758;8.888;2023-02-07T13:26:20;10.50;;;8.47;;
7707;SDS011;3896;48.758;8.888;2023-02-07T13:28:58;10.50;;;8.50;;
7707;SDS011;3896;48.758;8.888;2023-02-07T13:31:38;12.83;;;8.57;;
7707;SDS011;3896;48.758;8.888;2023-02-07T13:34:17;13.50;;;9.03;;
7707;SDS011;3896;48.758;8.888;2023-02-07T13:36:49;11.57;;;7.80;;
7707;SDS011;3896;48.758;8.888;2023-02-07T13:42:16;11.10;;;7.50;;
7707;SDS011;3896;48.758;8.888;2023-02-07T13:47:28;10.30;;;8.20;;
7707;SDS011;3896;48.758;8.888;2023-02-07T13:50:13;9.73;;;8.10;;
7707;SDS011;3896;48.758;8.888;2023-02-07T13:55:40;9.87;;;7.57;;
7707;SDS011;3896;48.758;8.888;2023-02-07T14:01:16;11.50;;;8.30;;
7707;SDS011;3896;48.758;8.888;2023-02-07T14:03:44;11.53;;;8.17;;
7707;SDS011;3896;48.758;8.888;2023-02-07T14:06:33;9.83;;;6.63;;
7707;SDS011;3896;48.758;8.888;2023-02-07T14:09:15;10.50;;;8.13;;
7707;SDS011;3896;48.758;8.888;2023-02-07T14:11:55;11.70;;;7.87;;
7707;SDS011;3896;48.758;8.888;2023-02-07T14:14:36;12.30;;;7.93;;
7707;SDS011;3896;48.758;8.888;2023-02-07T14:22:12;8.80;;;7.37;;
7707;SDS011;3896;48.758;8.888;2023-02-07T14:27:31;9.53;;;7.60;;
7707;SDS011;3896;48.758;8.888;2023-02-07T14:35:27;13.30;;;7.73;;
7707;SDS011;3896;48.758;8.888;2023-02-07T14:45:36;10.50;;;7.57;;
7707;SDS011;3896;48.758;8.888;2023-02-07T14:48:04;10.70;;;7.83;;
7707;SDS011;3896;48.758;8.888;2023-02-07T14:50:51;10.17;;;7.87;;
7707;SDS011;3896;48.758;8.888;2023-02-07T14:53:18;11.97;;;8.40;;
7707;SDS011;3896;48.758;8.888;2023-02-07T14:55:46;8.77;;;7.60;;
7707;SDS011;3896;48.758;8.888;2023-02-07T14:58:23;8.77;;;7.83;;
7707;SDS011;3896;48.758;8.888;2023-02-07T15:01:03;9.87;;;7.90;;
7707;SDS011;3896;48.758;8.888;2023-02-07T15:03:41;11.07;;;7.50;;
7707;SDS011;3896;48.758;8.888;2023-02-07T15:06:17;9.80;;;8.20;;
7707;SDS011;3896;48.758;8.888;2023-02-07T15:08:59;8.90;;;6.90;;
7707;SDS011;3896;48.758;8.888;2023-02-07T15:11:25;10.63;;;7.10;;
7707;SDS011;3896;48.758;8.888;2023-02-07T15:13:54;9.37;;;7.80;;
7707;SDS011;3896;48.758;8.888;2023-02-07T15:16:25;8.50;;;6.77;;
7707;SDS011;3896;48.758;8.888;2023-02-07T15:18:59;8.20;;;6.53;;
7707;SDS011;3896;48.758;8.888;2023-02-07T15:21:32;9.10;;;6.77;;
7707;SDS011;3896;48.758;8.888;2023-02-07T15:24:05;11.60;;;7.33;;
7707;SDS011;3896;48.758;8.888;2023-02-07T15:26:37;9.80;;;7.17;;
7707;SDS011;3896;48.758;8.888;2023-02-07T15:29:05;7.60;;;6.80;;
7707;SDS011;3896;48.758;8.888;2023-02-07T15:31:42;10.47;;;7.10;;
7707;SDS011;3896;48.758;8.888;2023-02-07T15:34:13;9.30;;;7.30;;
7707;SDS011;3896;48.758;8.888;2023-02-07T15:36:42;9.67;;;6.77;;
7707;SDS011;3896;48.758;8.888;2023-02-07T15:39:28;7.73;;;6.83;;
7707;SDS011;3896;48.758;8.888;2023-02-07T15:41:54;7.37;;;5.70;;
7707;SDS011;3896;48.758;8.888;2023-02-07T15:44:24;14.40;;;7.57;;
7707;SDS011;3896;48.758;8.888;2023-02-07T15:47:01;11.00;;;6.53;;
7707;SDS011;3896;48.758;8.888;2023-02-07T15:49:32;6.50;;;5.57;;
7707;SDS011;3896;48.758;8.888;2023-02-07T15:54:44;8.50;;;5.87;;
7707;SDS011;3896;48.758;8.888;2023-02-07T15:57:15;6.30;;;5.70;;
7707;SDS011;3896;48.758;8.888;2023-02-07T15:59:50;7.63;;;6.17;;
7707;SDS011;3896;48.758;8.888;2023-02-07T16:02:21;8.43;;;6.03;;
7707;SDS011;3896;48.758;8.888;2023-02-07T16:04:50;8.57;;;5.60;;
7707;SDS011;3896;48.758;8.888;2023-02-07T16:07:15;7.23;;;6.27;;
7707;SDS011;3896;48.758;8.888;2023-02-07T16:09:43;7.50;;;5.70;;
7707;SDS011;3896;48.758;8.888;2023-02-07T16:12:29;8.70;;;5.67;;
7707;SDS011;3896;48.758;8.888;2023-02-07T16:14:56;9.37;;;6.00;;
7707;SDS011;3896;48.758;8.888;2023-02-07T16:17:37;7.03;;;5.70;;
7707;SDS011;3896;48.758;8.888;2023-02-07T16:20:08;9.33;;;5.37;;
7707;SDS011;3896;48.758;8.888;2023-02-07T16:22:38;7.50;;;5.50;;
7707;SDS011;3896;48.758;8.888;2023-02-07T16:25:03;8.73;;;5.10;;
7707;SDS011;3896;48.758;8.888;2023-02-07T16:27:29;7.77;;;6.10;;
7707;SDS011;3896;48.758;8.888;2023-02-07T16:29:58;7.13;;;5.43;;
7707;SDS011;3896;48.758;8.888;2023-02-07T16:32:25;8.10;;;6.50;;
7707;SDS011;3896;48.758;8.888;2023-02-07T16:34:54;7.53;;;6.10;;
7707;SDS011;3896;48.758;8.888;2023-02-07T16:37:20;10.10;;;5.50;;
7707;SDS011;3896;48.758;8.888;2023-02-07T16:39:45;9.50;;;5.80;;
7707;SDS011;3896;48.758;8.888;2023-02-07T16:42:12;15.80;;;6.03;;
7707;SDS011;3896;48.758;8.888;2023-02-07T16:44:39;14.30;;;7.25;;
7707;SDS011;3896;48.758;8.888;2023-02-07T16:47:05;8.27;;;6.37;;
7707;SDS011;3896;48.758;8.888;2023-02-07T16:49:32;7.93;;;5.90;;
7707;SDS011;3896;48.758;8.888;2023-02-07T16:51:58;7.30;;;5.03;;
7707;SDS011;3896;48.758;8.888;2023-02-07T16:54:24;11.70;;;5.93;;
7707;SDS011;3896;48.758;8.888;2023-02-07T16:56:51;10.03;;;5.53;;
7707;SDS011;3896;48.758;8.888;2023-02-07T16:59:20;9.03;;;5.73;;
7707;SDS011;3896;48.758;8.888;2023-02-07T17:01:46;13.63;;;6.03;;
7707;SDS011;3896;48.758;8.888;2023-02-07T17:04:13;9.30;;;6.00;;
7707;SDS011;3896;48.758;8.888;2023-02-07T17:06:40;11.17;;;6.33;;
7707;SDS011;3896;48.758;8.888;2023-02-07T17:09:13;9.27;;;5.90;;
7707;SDS011;3896;48.758;8.888;2023-02-07T17:11:45;8.87;;;6.07;;
7707;SDS011;3896;48.758;8.888;2023-02-07T17:14:11;8.43;;;5.53;;
7707;SDS011;3896;48.758;8.888;2023-02-07T17:16:37;8.10;;;5.80;;
7707;SDS011;3896;48.758;8.888;2023-02-07T17:19:09;8.60;;;6.10;;
7707;SDS011;3896;48.758;8.888;2023-02-07T17:21:42;6.77;;;5.73;;
7707;SDS011;3896;48.758;8.888;2023-02-07T17:24:08;7.57;;;5.43;;
7707;SDS011;3896;48.758;8.888;2023-02-07T17:26:34;11.07;;;6.20;;